Time;durP1;ratioP1;P1;durP2;ratioP2;P2;SDS_P1;SDS_P2;PMS_P1;PMS_P2;Temp;Humidity;BMP_temperature;BMP_pressure;BME280_temperature;BME280_humidity;BME280_pressure;Samples;Min_cycle;Max_cycle;Signal;HPM_P1;HPM_P2
2023/10/04 00:01:46;;;;;;;4.90;4.70;;;;;;;11.10;100.00;101825.50;6139191;23;20471;-71
2023/10/04 00:04:13;;;;;;;5.00;4.65;;;;;;;11.61;100.00;101910.41;6168006;23;20286;-73
2023/10/04 00:06:41;;;;;;;4.70;4.32;;;;;;;10.71;100.00;101766.47;6137859;23;20033;-74
2023/10/04 00:09:09;;;;;;;4.95;4.65;;;;;;;11.49;100.00;101899.41;6141517;23;20103;-74
2023/10/04 00:11:37;;;;;;;9.50;4.72;;;;;;;11.49;100.00;101909.91;6165997;23;20032;-74
2023/10/04 00:14:04;;;;;;;5.28;4.88;;;;;;;11.38;100.00;101888.41;6114927;23;20115;-74
2023/10/04 00:16:34;;;;;;;5.03;4.72;;;;;;;11.14;100.00;101859.47;6163325;23;20269;-74
2023/10/04 00:19:02;;;;;;;5.35;5.00;;;;;;;11.34;100.00;101921.84;6139391;23;20031;-74
2023/10/04 00:21:29;;;;;;;5.03;4.63;;;;;;;11.36;100.00;101924.41;6164408;23;20028;-74
2023/10/04 00:23:58;;;;;;;5.20;4.90;;;;;;;10.24;100.00;101758.44;6134042;23;20176;-72
2023/10/04 00:26:25;;;;;;;4.85;4.45;;;;;;;11.44;100.00;101940.75;6137298;23;20319;-73
2023/10/04 00:28:51;;;;;;;5.00;4.80;;;;;;;11.42;100.00;101944.38;6144070;23;20024;-73
2023/10/04 00:31:18;;;;;;;5.00;4.70;;;;;;;10.91;100.00;101872.59;6133180;23;20095;-75
2023/10/04 00:33:44;;;;;;;5.47;5.05;;;;;;;11.22;100.00;101929.31;6145159;23;20196;-74
2023/10/04 00:36:13;;;;;;;4.80;4.60;;;;;;;11.41;100.00;101968.94;6132896;23;20558;-75
2023/10/04 00:38:40;;;;;;;5.88;4.75;;;;;;;11.36;100.00;101969.94;6163431;23;20051;-73
2023/10/04 00:41:08;;;;;;;5.07;4.78;;;;;;;10.64;100.00;101869.13;6111224;23;20715;-74
2023/10/04 00:43:47;;;;;;;6.25;5.53;;;;;;;11.31;100.00;101981.56;6151904;23;20028;-75
2023/10/04 00:46:13;;;;;;;4.88;4.63;;;;;;;11.20;100.00;101965.28;6161391;23;20080;-74
2023/10/04 00:48:40;;;;;;;5.45;5.15;;;;;;;11.22;100.00;101966.94;6167483;23;20061;-73
2023/10/04 00:51:07;;;;;;;5.00;4.60;;;;;;;11.38;100.00;101991.81;6112803;23;20048;-74
2023/10/04 00:53:34;;;;;;;4.70;4.50;;;;;;;11.36;100.00;101993.59;6164290;23;20032;-74
2023/10/04 00:56:02;;;;;;;5.30;4.78;;;;;;;10.31;100.00;101817.72;6123639;23;20471;-75
2023/10/04 00:58:29;;;;;;;4.45;4.20;;;;;;;10.34;100.00;101832.50;6115733;23;20077;-75
2023/10/04 01:00:55;;;;;;;4.60;4.40;;;;;;;11.42;100.00;101992.53;6135824;23;20016;-74
2023/10/04 01:03:24;;;;;;;5.32;5.03;;;;;;;11.25;100.00;101971.25;6165444;23;20056;-75
2023/10/04 01:05:52;;;;;;;5.00;4.80;;;;;;;11.32;100.00;101993.78;6136247;23;20164;-74
2023/10/04 01:08:22;;;;;;;5.20;4.85;;;;;;;10.91;100.00;101931.22;6162515;23;20044;-74
2023/10/04 01:10:50;;;;;;;4.53;4.32;;;;;;;11.12;100.00;101992.66;6133127;23;20471;-74
2023/10/04 01:13:22;;;;;;;5.38;4.93;;;;;;;11.22;100.00;102002.88;6167022;23;20040;-75
2023/10/04 01:15:51;;;;;;;7.50;4.57;;;;;;;10.78;100.00;101943.91;6134298;23;20036;-75
2023/10/04 01:18:18;;;;;;;4.70;4.50;;;;;;;11.07;100.00;102001.63;6167636;23;20046;-74
2023/10/04 01:20:46;;;;;;;4.78;4.47;;;;;;;9.85;100.00;101811.28;6118565;23;20071;-76
2023/10/04 01:23:12;;;;;;;7.10;4.65;;;;;;;10.88;100.00;101985.63;6168270;23;20037;-73
2023/10/04 01:25:42;;;;;;;5.05;4.75;;;;;;;10.81;100.00;101973.59;6155520;23;20079;-75
2023/10/04 01:28:13;;;;;;;4.57;4.35;;;;;;;10.62;100.00;101945.31;6131147;23;20049;-76
2023/10/04 01:30:41;;;;;;;4.78;4.57;;;;;;;11.23;100.00;102033.53;6168414;23;20020;-75
2023/10/04 01:33:15;;;;;;;4.95;4.68;;;;;;;11.24;100.00;102037.84;6167889;23;20294;-76
2023/10/04 01:35:53;;;;;;;5.10;4.50;;;;;;;10.89;100.00;101982.09;6167617;23;20020;-76
2023/10/04 01:38:27;;;;;;;5.05;4.80;;;;;;;11.08;100.00;102033.09;6135766;23;20091;-75
2023/10/04 01:40:55;;;;;;;4.80;4.60;;;;;;;10.35;100.00;101878.81;6150206;23;20012;-73
2023/10/04 01:43:24;;;;;;;5.93;5.47;;;;;;;11.27;100.00;102035.13;6115863;23;20029;-74
2023/10/04 01:45:57;;;;;;;6.03;5.45;;;;;;;10.92;100.00;101984.59;6169142;23;20482;-75
2023/10/04 01:48:30;;;;;;;4.75;4.45;;;;;;;11.23;100.00;102038.78;6112836;23;20042;-75
2023/10/04 01:51:02;;;;;;;4.90;4.60;;;;;;;11.21;100.00;102044.06;6154076;23;20009;-75
2023/10/04 01:53:29;;;;;;;4.50;4.30;;;;;;;10.85;100.00;101996.22;6117294;23;20107;-75
2023/10/04 01:55:56;;;;;;;4.70;4.50;;;;;;;11.27;100.00;102053.53;6171712;23;20028;-74
2023/10/04 01:58:25;;;;;;;4.97;4.70;;;;;;;10.69;100.00;101954.72;6142228;23;20088;-73
2023/10/04 02:00:53;;;;;;;5.05;4.63;;;;;;;10.97;100.00;102007.19;6115549;23;20459;-74
2023/10/04 02:03:20;;;;;;;4.82;4.53;;;;;;;10.73;100.00;101972.06;6114910;23;20048;-74
2023/10/04 02:05:56;;;;;;;5.63;4.43;;;;;;;11.29;100.00;102054.34;6164886;23;20005;-73
2023/10/04 02:08:24;;;;;;;5.57;5.18;;;;;;;10.95;100.00;102010.78;6140490;23;20025;-76
2023/10/04 02:10:52;;;;;;;4.85;4.60;;;;;;;10.97;100.00;102022.09;6120611;23;20172;-74
2023/10/04 02:13:21;;;;;;;5.25;4.85;;;;;;;10.92;100.00;102003.84;6167424;23;20403;-76
2023/10/04 02:15:48;;;;;;;5.22;4.80;;;;;;;11.35;100.00;102067.28;6136236;23;20029;-76
2023/10/04 02:18:15;;;;;;;6.00;5.50;;;;;;;11.16;100.00;102031.09;6163559;23;20581;-76
2023/10/04 02:20:49;;;;;;;8.93;5.03;;;;;;;11.46;100.00;102059.84;6125004;23;20024;-75
2023/10/04 02:23:16;;;;;;;5.32;4.55;;;;;;;11.47;100.00;102060.75;6143510;23;20478;-74
2023/10/04 02:25:43;;;;;;;4.82;4.43;;;;;;;11.49;100.00;102056.28;6164831;23;20187;-75
2023/10/04 02:28:18;;;;;;;4.90;4.70;;;;;;;11.09;100.00;102003.28;6141702;23;20059;-75
2023/10/04 02:30:47;;;;;;;5.38;5.07;;;;;;;11.52;100.00;102058.78;6147948;23;20068;-75
2023/10/04 02:33:15;;;;;;;5.00;4.70;;;;;;;11.54;100.00;102064.84;6134301;23;20523;-73
2023/10/04 02:35:47;;;;;;;4.95;4.60;;;;;;;10.85;100.00;101951.59;6148762;23;20000;-75
2023/10/04 02:38:19;;;;;;;4.97;4.68;;;;;;;11.45;100.00;102036.28;6114678;23;20708;-76
2023/10/04 02:40:46;;;;;;;4.82;4.53;;;;;;;11.27;100.00;101990.47;6121401;23;20266;-76
2023/10/04 02:43:15;;;;;;;5.03;4.63;;;;;;;11.38;100.00;102010.19;6141236;23;20452;-75
2023/10/04 02:45:42;;;;;;;5.30;5.00;;;;;;;11.65;100.00;102044.31;6164788;23;20012;-75
2023/10/04 02:48:10;;;;;;;15.30;14.02;;;;;;;11.30;100.00;102008.72;6015684;23;20114;-77
2023/10/04 02:50:42;;;;;;;4.70;4.40;;;;;;;11.05;100.00;101949.16;6137582;23;20020;-76
2023/10/04 02:53:12;;;;;;;5.72;5.22;;;;;;;11.41;100.00;102009.22;6166354;23;20336;-75
2023/10/04 02:55:39;;;;;;;5.65;5.20;;;;;;;11.20;100.00;101967.91;6124054;23;20016;-75
2023/10/04 02:58:07;;;;;;;4.60;4.40;;;;;;;10.92;100.00;101934.69;6141343;23;20036;-75
2023/10/04 03:00:42;;;;;;;7.38;4.55;;;;;;;10.87;100.00;101955.88;6169578;23;20096;-75
2023/10/04 03:03:09;;;;;;;4.88;4.57;;;;;;;11.06;100.00;101971.00;6140903;23;20085;-75
2023/10/04 03:05:36;;;;;;;4.85;4.40;;;;;;;11.34;100.00;102015.59;6111468;23;20280;-75
2023/10/04 03:08:12;;;;;;;5.07;4.47;;;;;;;11.65;100.00;102054.00;6168186;23;20113;-75
2023/10/04 03:10:40;;;;;;;5.03;4.72;;;;;;;11.62;100.00;102056.72;6165835;23;20029;-75
2023/10/04 03:13:12;;;;;;;4.88;4.57;;;;;;;11.24;100.00;101987.91;6135537;23;20021;-75
2023/10/04 03:15:39;;;;;;;5.03;4.30;;;;;;;11.57;100.00;102070.03;6166513;23;20077;-76
2023/10/04 03:18:13;;;;;;;5.22;4.93;;;;;;;11.25;100.00;102008.03;6141431;23;20113;-74
2023/10/04 03:20:49;;;;;;;5.65;4.70;;;;;;;11.36;100.00;102030.41;6148481;23;20016;-75
2023/10/04 03:23:18;;;;;;;4.75;4.55;;;;;;;11.35;100.00;102017.34;6133690;23;20100;-75
2023/10/04 03:25:47;;;;;;;4.80;4.40;;;;;;;11.54;100.00;102049.09;6138120;23;20124;-73
2023/10/04 03:28:16;;;;;;;5.28;4.70;;;;;;;11.42;100.00;102033.75;6138431;23;20084;-73
2023/10/04 03:30:44;;;;;;;4.55;4.35;;;;;;;11.46;100.00;102044.09;6167691;23;20080;-74
2023/10/04 03:33:10;;;;;;;4.65;4.38;;;;;;;11.45;100.00;102034.50;6142071;23;20080;-73
2023/10/04 03:35:39;;;;;;;5.43;4.90;;;;;;;11.51;100.00;102063.22;6165248;23;20008;-75
2023/10/04 03:38:06;;;;;;;5.10;4.80;;;;;;;11.36;100.00;102042.69;6114119;23;20058;-74
2023/10/04 03:40:35;;;;;;;5.07;4.75;;;;;;;11.36;100.00;102061.09;6162600;23;20499;-73
2023/10/04 03:43:05;;;;;;;4.45;4.25;;;;;;;10.82;100.00;101959.56;6139872;23;20450;-72
2023/10/04 03:45:34;;;;;;;4.70;4.50;;;;;;;11.46;100.00;102080.88;6167964;23;20448;-76
2023/10/04 03:48:01;;;;;;;4.70;4.40;;;;;;;10.16;100.00;101862.75;6113053;23;20028;-74
2023/10/04 03:50:28;;;;;;;4.88;4.57;;;;;;;11.20;100.00;102052.84;6111694;23;20597;-74
2023/10/04 03:52:57;;;;;;;4.85;4.63;;;;;;;11.51;100.00;102084.25;6136912;23;20032;-76
2023/10/04 03:55:25;;;;;;;4.60;4.40;;;;;;;11.16;100.00;102031.09;6114052;23;20543;-74
2023/10/04 03:57:53;;;;;;;4.60;4.40;;;;;;;11.05;100.00;102017.44;6168672;23;20044;-74
2023/10/04 04:00:22;;;;;;;4.70;4.50;;;;;;;11.37;100.00;102082.06;6125824;23;20049;-74
2023/10/04 04:02:50;;;;;;;5.47;5.07;;;;;;;11.42;100.00;102076.66;6169355;23;20517;-75
2023/10/04 04:05:21;;;;;;;4.80;4.60;;;;;;;11.35;100.00;102098.81;6112101;23;20161;-75
2023/10/04 04:07:48;;;;;;;5.20;4.70;;;;;;;11.35;100.00;102083.03;6168287;23;20407;-75
2023/10/04 04:10:16;;;;;;;4.60;4.40;;;;;;;10.71;100.00;101997.53;6133677;23;20152;-75
2023/10/04 04:12:45;;;;;;;5.57;5.00;;;;;;;11.14;100.00;102064.41;6169650;23;20167;-73
2023/10/04 04:15:12;;;;;;;8.93;4.68;;;;;;;11.17;100.00;102076.63;6114491;23;20029;-75
2023/10/04 04:17:44;;;;;;;13.07;4.60;;;;;;;11.14;100.00;102074.06;6123764;23;20287;-74
2023/10/04 04:20:18;;;;;;;4.60;4.40;;;;;;;10.26;100.00;101958.63;6114684;23;20029;-73
2023/10/04 04:22:51;;;;;;;4.90;4.70;;;;;;;11.10;100.00;102098.72;6168197;23;20048;-74
2023/10/04 04:25:20;;;;;;;5.38;4.97;;;;;;;10.92;100.00;102093.13;6109477;23;20028;-75
2023/10/04 04:27:49;;;;;;;4.60;4.30;;;;;;;11.00;100.00;102103.41;6146208;23;20012;-75
2023/10/04 04:30:31;;;;;;;5.82;4.65;;;;;;;10.86;100.00;102087.22;6110476;23;20013;-73
2023/10/04 04:32:58;;;;;;;6.18;4.30;;;;;;;10.46;100.00;102034.16;6166257;23;20032;-74
2023/10/04 04:38:20;;;;;;;4.95;4.55;;;;;;;10.88;100.00;102116.94;6141594;23;20372;-74
2023/10/04 04:40:48;;;;;;;4.75;4.55;;;;;;;10.72;100.00;102104.28;6138606;23;20077;-75
2023/10/04 04:43:25;;;;;;;5.47;4.93;;;;;;;9.79;100.00;101971.41;6134781;23;20550;-74
2023/10/04 04:45:54;;;;;;;11.80;4.93;;;;;;;10.88;100.00;102119.56;6126159;23;20100;-74
2023/10/04 04:48:24;;;;;;;4.95;4.65;;;;;;;10.83;100.00;102110.97;6167615;23;20025;-74
2023/10/04 04:50:53;;;;;;;11.07;4.80;;;;;;;10.22;100.00;102025.22;6106709;23;20156;-74
2023/10/04 04:53:27;;;;;;;5.30;5.00;;;;;;;10.79;100.00;102112.81;6173712;23;20203;-74
2023/10/04 04:55:55;;;;;;;6.95;4.68;;;;;;;9.73;100.00;101934.88;6156286;23;20021;-74
2023/10/04 04:58:22;;;;;;;5.15;4.85;;;;;;;10.64;100.00;102082.63;6174650;23;20311;-75
2023/10/04 05:00:55;;;;;;;5.15;4.65;;;;;;;10.81;100.00;102104.91;6156717;23;20475;-75
2023/10/04 05:03:24;;;;;;;4.63;4.43;;;;;;;10.66;100.00;102093.94;6173781;23;20230;-75
2023/10/04 05:05:51;;;;;;;4.47;4.25;;;;;;;9.98;100.00;102001.44;6178507;23;20016;-75
2023/10/04 05:08:17;;;;;;;4.55;4.35;;;;;;;10.03;100.00;102031.94;6117235;23;20286;-75
2023/10/04 05:10:45;;;;;;;4.68;4.38;;;;;;;10.55;100.00;102133.66;6178383;23;20019;-74
2023/10/04 05:13:16;;;;;;;4.80;4.50;;;;;;;10.44;100.00;102124.34;6176401;23;20050;-74
2023/10/04 05:15:43;;;;;;;4.40;4.20;;;;;;;10.06;100.00;102065.94;6154389;23;20004;-74
2023/10/04 05:18:16;;;;;;;5.25;4.68;;;;;;;10.15;100.00;102078.78;6172723;23;20095;-75
2023/10/04 05:20:53;;;;;;;4.50;4.30;;;;;;;10.44;100.00;102130.47;6153012;23;20023;-75
2023/10/04 05:23:24;;;;;;;5.40;4.90;;;;;;;9.85;100.00;102042.03;6148557;23;20032;-74
2023/10/04 05:25:52;;;;;;;4.97;4.57;;;;;;;9.75;100.00;102038.78;6174998;23;20023;-75
2023/10/04 05:28:19;;;;;;;9.50;4.68;;;;;;;9.92;100.00;102061.06;6149580;23;20487;-73
2023/10/04 05:30:46;;;;;;;4.28;4.07;;;;;;;10.20;100.00;102126.72;6174396;23;20137;-72
2023/10/04 05:33:18;;;;;;;4.30;4.10;;;;;;;10.37;100.00;102135.03;6129490;23;20479;-75
2023/10/04 05:35:47;;;;;;;8.85;4.90;;;;;;;10.33;100.00;102132.53;6118698;23;20013;-76
2023/10/04 05:38:17;;;;;;;4.50;4.22;;;;;;;10.01;100.00;102094.06;6153059;23;20037;-72
2023/10/04 05:40:47;;;;;;;5.13;4.82;;;;;;;10.32;100.00;102139.56;6175685;23;20005;-73
2023/10/04 05:43:15;;;;;;;4.75;4.35;;;;;;;10.12;100.00;102116.47;6128146;23;20024;-75
2023/10/04 05:45:42;;;;;;;4.40;4.20;;;;;;;10.23;100.00;102150.28;6147216;23;20035;-75
2023/10/04 05:48:11;;;;;;;4.68;4.00;;;;;;;9.72;100.00;102066.84;6150075;23;20241;-74
2023/10/04 05:50:39;;;;;;;4.35;4.15;;;;;;;10.23;100.00;102157.28;6144786;23;20025;-75
2023/10/04 05:53:06;;;;;;;4.40;4.20;;;;;;;10.21;100.00;102154.69;6120837;23;20386;-74
2023/10/04 05:55:37;;;;;;;4.95;4.65;;;;;;;10.24;100.00;102156.38;6177432;23;20032;-73
2023/10/04 05:58:08;;;;;;;7.40;4.45;;;;;;;9.96;100.00;102116.03;6146486;23;20029;-75
2023/10/04 06:00:40;;;;;;;4.72;4.32;;;;;;;10.27;100.00;102172.91;6153716;23;20534;-74
2023/10/04 06:03:15;;;;;;;;;;;;;;;10.33;100.00;102174.53;6174162;23;20024;-74
2023/10/04 06:05:42;;;;;;;4.72;4.43;;;;;;;10.40;100.00;102175.22;6142792;23;19913;-75
2023/10/04 06:08:12;;;;;;;5.10;4.70;;;;;;;10.44;100.00;102177.69;6167951;23;20033;-74
2023/10/04 06:10:38;;;;;;;4.40;4.20;;;;;;;10.48;100.00;102191.59;6140761;23;20253;-75
2023/10/04 06:13:11;;;;;;;5.65;4.68;;;;;;;10.20;100.00;102147.72;6172881;23;20199;-74
2023/10/04 06:15:41;;;;;;;;;;;;;;;10.58;100.00;102216.69;6136852;23;20041;-75
2023/10/04 06:18:09;;;;;;;5.35;5.00;;;;;;;10.64;100.00;102226.16;6171686;23;20302;-74
2023/10/04 06:20:36;;;;;;;4.43;4.15;;;;;;;10.71;100.00;102225.97;6137212;23;20533;-75
2023/10/04 06:23:05;;;;;;;5.10;4.80;;;;;;;10.72;100.00;102211.94;6170981;23;20017;-74
2023/10/04 06:25:45;;;;;;;4.55;4.35;;;;;;;10.76;100.00;102207.44;6138704;23;20035;-74
2023/10/04 06:28:12;;;;;;;5.35;4.70;;;;;;;10.81;100.00;102196.81;6137448;23;20039;-75
2023/10/04 06:30:39;;;;;;;4.55;4.28;;;;;;;10.84;100.00;102202.81;6137942;23;20013;-75
2023/10/04 06:33:08;;;;;;;4.40;4.18;;;;;;;10.80;100.00;102184.59;6169121;23;20105;-74
2023/10/04 06:35:37;;;;;;;6.38;4.70;;;;;;;11.03;100.00;102208.41;6141856;23;20070;-76
2023/10/04 06:38:08;;;;;;;4.53;4.20;;;;;;;11.03;100.00;102202.31;6165638;23;20468;-74
2023/10/04 06:40:36;;;;;;;5.05;4.32;;;;;;;11.14;100.00;102193.16;6142115;23;20039;-73
2023/10/04 06:43:04;;;;;;;4.30;4.10;;;;;;;11.17;100.00;102185.19;6116387;23;20459;-74
2023/10/04 06:45:32;;;;;;;5.18;4.75;;;;;;;11.26;100.00;102194.56;6168752;23;20024;-74
2023/10/04 06:48:00;;;;;;;4.60;4.40;;;;;;;11.04;100.00;102159.34;6172183;23;20017;-73
2023/10/04 06:50:32;;;;;;;6.57;5.30;;;;;;;11.43;100.00;102207.19;6139957;23;20029;-73
2023/10/04 06:53:01;;;;;;;4.65;4.43;;;;;;;11.52;100.00;102212.13;6135376;23;20029;-72
2023/10/04 06:55:28;;;;;;;4.63;4.40;;;;;;;11.27;100.00;102151.63;6166571;23;20044;-73
2023/10/04 06:57:55;;;;;;;4.45;4.22;;;;;;;11.63;100.00;102182.88;6163827;23;20037;-72
2023/10/04 07:00:26;;;;;;;4.68;4.47;;;;;;;11.82;100.00;102209.44;6137196;23;20423;-73
2023/10/04 07:02:56;;;;;;;4.90;4.50;;;;;;;11.94;100.00;102203.78;6116510;23;20021;-74
2023/10/04 07:05:26;;;;;;;4.63;4.43;;;;;;;12.06;100.00;102199.03;6136348;23;20037;-75
2023/10/04 07:08:43;;;;;;;6.47;4.78;;;;;;;12.18;100.00;102188.06;6165755;23;20017;-73
2023/10/04 07:11:11;;;;;;;4.95;4.55;;;;;;;11.74;100.00;102093.09;6131400;23;20013;-75
2023/10/04 07:13:39;;;;;;;4.40;4.20;;;;;;;12.43;100.00;102177.53;6168068;23;20279;-74
2023/10/04 07:16:06;;;;;;;4.50;4.30;;;;;;;12.49;100.00;102173.84;6164265;23;20016;-73
2023/10/04 07:18:32;;;;;;;5.20;4.90;;;;;;;12.46;100.00;102145.81;6157041;17;20037;-73
2023/10/04 07:20:59;;;;;;;4.93;4.55;;;;;;;12.61;100.00;102156.69;6168324;23;22161;-72
2023/10/04 07:23:25;;;;;;;5.25;4.80;;;;;;;12.77;100.00;102155.22;6132524;23;20479;-73
2023/10/04 07:26:09;;;;;;;4.97;4.60;;;;;;;12.62;100.00;102103.97;6139443;23;20494;-74
2023/10/04 07:28:38;;;;;;;5.00;4.70;;;;;;;12.72;100.00;102110.59;6180640;23;20021;-73
2023/10/04 07:31:04;;;;;;;7.18;5.15;;;;;;;11.97;100.00;101959.00;6127974;23;20017;-73
2023/10/04 07:33:31;;;;;;;4.85;4.65;;;;;;;13.08;100.00;102128.50;6144400;23;20039;-73
2023/10/04 07:35:57;;;;;;;9.82;4.82;;;;;;;12.91;100.00;102086.16;6136795;23;20033;-74
2023/10/04 07:38:24;;;;;;;4.82;4.53;;;;;;;12.90;100.00;102071.28;6144813;23;20033;-74
2023/10/04 07:40:50;;;;;;;5.00;4.65;;;;;;;12.82;100.00;102039.97;6137111;23;20028;-73
2023/10/04 07:43:17;;;;;;;4.80;4.50;;;;;;;13.39;100.00;102116.78;6136203;23;20053;-77
2023/10/04 07:45:45;;;;;;;7.18;5.00;;;;;;;13.43;100.00;102102.56;6137179;23;20057;-76
2023/10/04 07:48:15;;;;;;;5.38;4.85;;;;;;;13.09;100.00;102043.28;6141813;23;20039;-72
2023/10/04 07:50:42;;;;;;;5.20;4.93;;;;;;;13.13;100.00;102042.22;6138149;23;20483;-73
2023/10/04 07:53:08;;;;;;;4.65;4.45;;;;;;;13.66;100.00;102098.94;6157985;23;20502;-74
2023/10/04 07:55:36;;;;;;;4.85;4.55;;;;;;;13.73;100.00;102078.41;6123816;23;20025;-74
2023/10/04 07:58:04;;;;;;;5.60;5.18;;;;;;;13.43;100.00;102009.38;6141316;23;20410;-75
2023/10/04 08:00:35;;;;;;;4.55;4.35;;;;;;;13.84;100.00;102057.69;6143800;23;20365;-74
2023/10/04 08:03:03;;;;;;;6.32;4.90;;;;;;;13.49;100.00;101988.88;6144172;23;20047;-73
2023/10/04 08:05:31;;;;;;;7.63;4.88;;;;;;;13.83;100.00;102037.53;6141721;23;20033;-73
2023/10/04 08:08:03;;;;;;;5.65;5.25;;;;;;;13.94;100.00;102058.16;6143022;23;20081;-74
2023/10/04 08:10:33;;;;;;;9.30;5.03;;;;;;;13.98;100.00;102058.88;6137205;23;20358;-74
2023/10/04 08:13:01;;;;;;;5.97;5.15;;;;;;;14.05;100.00;102044.47;6120638;23;20071;-75
2023/10/04 08:15:29;;;;;;;5.32;4.82;;;;;;;13.71;100.00;101996.72;6139148;23;20415;-76
2023/10/04 08:17:58;;;;;;;5.50;5.00;;;;;;;14.04;100.00;102008.44;6142240;23;20062;-75
2023/10/04 08:20:29;;;;;;;5.03;4.68;;;;;;;14.26;100.00;102032.06;6145152;23;20372;-73
2023/10/04 08:22:59;;;;;;;5.40;4.90;;;;;;;14.08;100.00;101980.97;6137448;23;20442;-74
2023/10/04 08:25:29;;;;;;;5.43;4.70;;;;;;;14.39;100.00;101982.16;6144492;23;20076;-75
2023/10/04 08:27:56;;;;;;;5.35;4.85;;;;;;;14.20;100.00;101942.59;6141441;23;20036;-73
2023/10/04 08:30:25;;;;;;;4.63;4.43;;;;;;;14.63;100.00;102003.94;6141337;23;20021;-74
2023/10/04 08:32:52;;;;;;;7.25;4.93;;;;;;;14.70;100.00;101978.94;6143181;23;20075;-76
2023/10/04 08:35:21;;;;;;;5.13;4.82;;;;;;;14.32;100.00;101903.22;6136738;23;20037;-74
2023/10/04 08:37:49;;;;;;;6.93;5.50;;;;;;;13.88;100.00;101823.56;6120062;23;20369;-74
2023/10/04 08:40:18;;;;;;;5.28;4.88;;;;;;;14.23;100.00;101903.69;6163772;23;20039;-75
2023/10/04 08:42:48;;;;;;;6.03;5.65;;;;;;;14.63;100.00;101973.06;6121449;23;20042;-73
2023/10/04 08:45:15;;;;;;;5.05;4.72;;;;;;;14.57;100.00;101978.66;6162108;23;20467;-75
2023/10/04 08:47:47;;;;;;;5.53;5.13;;;;;;;14.35;100.00;101953.28;6140456;23;19997;-73
2023/10/04 08:50:19;;;;;;;5.80;5.32;;;;;;;14.60;100.00;101978.53;6136860;23;20080;-75
2023/10/04 08:52:47;;;;;;;5.50;5.03;;;;;;;14.40;100.00;101955.69;6139978;23;20715;-73
2023/10/04 08:55:20;;;;;;;5.47;5.07;;;;;;;14.71;100.00;102000.00;6139370;23;20017;-74
2023/10/04 08:57:48;;;;;;;;;;;;;;;14.76;100.00;102010.34;6139827;23;20372;-74
2023/10/04 09:00:15;;;;;;;13.00;4.88;;;;;;;14.65;100.00;101976.50;6139406;23;20074;-75
2023/10/04 09:02:58;;;;;;;5.68;5.15;;;;;;;14.95;100.00;102000.59;6142957;23;20435;-73
2023/10/04 09:05:28;;;;;;;5.50;5.00;;;;;;;15.10;100.00;101998.09;6140080;23;20031;-74
2023/10/04 09:07:55;;;;;;;4.93;4.70;;;;;;;15.48;100.00;102022.59;6134782;23;22178;-74
2023/10/04 09:10:23;;;;;;;6.90;5.07;;;;;;;15.52;100.00;101963.28;6140050;23;20056;-76
2023/10/04 09:12:50;;;;;;;5.20;4.90;;;;;;;15.53;100.00;101954.41;6141154;23;20093;-75
2023/10/04 09:15:25;;;;;;;5.00;4.70;;;;;;;15.37;100.00;101895.31;6136152;23;20046;-74
2023/10/04 09:17:56;;;;;;;5.70;5.18;;;;;;;15.83;100.00;101931.69;6139943;23;20264;-75
2023/10/04 09:20:27;;;;;;;5.63;5.18;;;;;;;15.35;100.00;101853.09;6137326;23;20005;-74
2023/10/04 09:22:54;;;;;;;5.10;4.90;;;;;;;15.87;100.00;101933.25;6142501;23;20043;-74
2023/10/04 09:25:20;;;;;;;5.78;5.18;;;;;;;15.55;100.00;101897.00;6141445;23;20029;-74
2023/10/04 09:27:54;;;;;;;5.45;5.05;;;;;;;15.43;98.99;101820.91;6147464;23;20025;-74
2023/10/04 09:30:23;;;;;;;5.50;5.00;;;;;;;15.90;97.72;101877.50;6142377;23;20117;-74
2023/10/04 09:32:51;;;;;;;6.28;5.43;;;;;;;15.97;95.75;101849.72;6129854;23;20025;-75
2023/10/04 09:35:19;;;;;;;5.57;5.18;;;;;;;16.12;97.04;101893.03;6137973;23;20032;-74
2023/10/04 09:37:50;;;;;;;5.50;5.00;;;;;;;16.30;93.33;101815.16;6111445;23;20026;-73
2023/10/04 09:40:18;;;;;;;5.30;4.90;;;;;;;16.31;92.58;101821.31;6138045;23;20089;-74
2023/10/04 09:42:51;;;;;;;5.60;5.30;;;;;;;16.52;93.80;101882.78;6148946;23;20039;-74
2023/10/04 09:45:23;;;;;;;5.18;4.75;;;;;;;16.85;93.13;101876.47;6161497;23;20077;-74
2023/10/04 09:47:53;;;;;;;5.85;5.38;;;;;;;17.15;91.71;101861.34;6144648;23;20092;-75
2023/10/04 09:50:24;;;;;;;8.43;5.28;;;;;;;17.11;87.63;101766.97;6165032;23;20455;-75
2023/10/04 09:52:52;;;;;;;5.38;4.97;;;;;;;17.14;85.95;101705.78;6140683;23;20070;-74
2023/10/04 09:55:25;;;;;;;7.32;5.43;;;;;;;17.12;86.12;101720.13;6143681;23;20368;-73
2023/10/04 09:57:55;;;;;;;5.60;5.30;;;;;;;17.70;84.14;101753.50;6167238;23;20017;-74
2023/10/04 10:00:24;;;;;;;5.60;5.20;;;;;;;17.57;81.07;101666.81;6144820;23;20067;-73
2023/10/04 10:02:53;;;;;;;5.75;5.38;;;;;;;17.26;84.46;101732.47;6141128;23;20021;-73
2023/10/04 10:05:26;;;;;;;7.88;5.20;;;;;;;17.65;79.52;101633.47;6141823;23;20651;-73
2023/10/04 10:07:53;;;;;;;5.50;5.20;;;;;;;17.40;80.37;101644.03;6116461;23;20033;-73
2023/10/04 10:10:21;;;;;;;5.30;5.00;;;;;;;17.71;77.57;101616.28;6143114;23;20041;-75
2023/10/04 10:12:51;;;;;;;5.72;5.40;;;;;;;17.72;76.98;101607.38;6142480;23;20388;-73
2023/10/04 10:15:18;;;;;;;5.68;5.03;;;;;;;17.72;76.64;101600.28;6142696;23;20060;-73
2023/10/04 10:17:48;;;;;;;5.90;5.40;;;;;;;17.62;76.09;101590.34;6142371;23;20374;-73
2023/10/04 10:20:16;;;;;;;6.10;5.60;;;;;;;17.68;79.18;101707.63;6140015;23;20375;-73
2023/10/04 10:22:57;;;;;;;5.47;5.00;;;;;;;17.87;79.07;101717.06;6146421;23;20537;-73
2023/10/04 10:25:33;;;;;;;5.90;5.40;;;;;;;18.14;79.04;101740.88;6133841;23;20116;-73
2023/10/04 10:28:04;;;;;;;5.82;5.45;;;;;;;18.13;77.35;101664.81;6136822;23;20507;-74
2023/10/04 10:30:31;;;;;;;6.18;5.25;;;;;;;18.20;74.58;101594.38;6141981;23;20427;-74
2023/10/04 10:32:59;;;;;;;5.90;5.45;;;;;;;17.84;74.83;101585.34;6166430;23;20440;-73
2023/10/04 10:36:03;;;;;;;6.03;5.60;;;;;;;16.93;74.53;101411.03;6144028;23;20049;-73
2023/10/04 10:38:43;;;;;;;5.50;5.20;;;;;;;18.17;76.20;101687.56;6051711;23;20405;-74
2023/10/04 10:41:28;;;;;;;7.07;5.35;;;;;;;18.14;74.98;101656.75;6128462;23;20186;-75
2023/10/04 10:44:20;;;;;;;8.40;5.40;;;;;;;18.34;75.54;101703.19;6140713;23;20619;-73
2023/10/04 10:46:54;;;;;;;7.20;5.67;;;;;;;18.40;75.07;101674.47;6140729;23;20364;-74
2023/10/04 10:49:37;;;;;;;6.15;5.70;;;;;;;18.38;73.46;101647.16;6135492;23;20463;-73
2023/10/04 10:52:03;;;;;;;5.55;5.25;;;;;;;18.37;72.63;101616.25;6136724;23;20028;-73
2023/10/04 10:54:29;;;;;;;5.90;5.38;;;;;;;18.04;74.70;101661.00;6138609;23;20033;-75
2023/10/04 10:56:56;;;;;;;7.45;6.53;;;;;;;18.41;72.38;101639.00;6139768;23;20525;-74
2023/10/04 10:59:23;;;;;;;5.50;5.20;;;;;;;18.18;70.97;101568.84;6140246;23;20087;-73
2023/10/04 11:01:49;;;;;;;6.10;5.70;;;;;;;18.33;72.63;101650.16;6138736;23;20569;-73
2023/10/04 11:04:16;;;;;;;6.65;5.88;;;;;;;18.36;71.41;101620.69;6144856;23;20032;-73
2023/10/04 11:06:43;;;;;;;5.88;5.43;;;;;;;17.90;71.30;101562.78;6142189;23;20117;-74
2023/10/04 11:09:09;;;;;;;6.53;5.90;;;;;;;18.31;72.19;101655.56;6139759;23;20151;-73
2023/10/04 11:11:37;;;;;;;6.78;5.45;;;;;;;18.28;70.76;101621.25;6142589;23;20083;-73
2023/10/04 11:14:05;;;;;;;6.57;6.18;;;;;;;18.59;70.65;101640.34;6138928;23;20033;-72
2023/10/04 11:16:33;;;;;;;5.70;5.30;;;;;;;18.34;69.18;101543.75;6140220;23;20029;-74
2023/10/04 11:19:02;;;;;;;7.00;6.38;;;;;;;18.57;68.73;101583.78;6165033;23;20029;-74
2023/10/04 11:21:29;;;;;;;6.00;5.60;;;;;;;18.64;69.78;101648.84;6140750;23;20045;-73
2023/10/04 11:23:56;;;;;;;8.18;5.72;;;;;;;18.53;69.14;101576.97;6143950;23;20022;-73
2023/10/04 11:26:22;;;;;;;6.30;5.65;;;;;;;18.02;68.68;101482.28;6135731;23;20203;-74
2023/10/04 11:28:49;;;;;;;6.30;5.68;;;;;;;18.58;68.54;101590.78;6145660;23;20379;-73
2023/10/04 11:31:16;;;;;;;5.95;5.45;;;;;;;18.22;69.73;101594.25;6165975;23;20130;-74
2023/10/04 11:33:59;;;;;;;6.63;6.13;;;;;;;18.58;67.79;101573.97;6139240;23;20028;-74